createdAt,value
2017-01-27T00:01:04.833Z,1016.32
2017-01-27T00:02:16.433Z,1016.32
2017-01-27T00:03:27.830Z,1016.4
2017-01-27T00:04:39.238Z,1016.35
2017-01-27T00:05:50.688Z,1016.29
2017-01-27T00:07:02.082Z,1016.25
2017-01-27T00:08:13.687Z,1016.23
2017-01-27T00:09:25.095Z,1016.22
2017-01-27T00:10:36.496Z,1016.22
2017-01-27T00:11:47.951Z,1016.23
2017-01-27T00:12:59.358Z,1016.19
2017-01-27T00:14:10.754Z,1016.2
2017-01-27T00:15:22.152Z,1016.13
2017-01-27T00:16:33.756Z,1016.15
2017-01-27T00:17:45.244Z,1016.14
2017-01-27T00:18:56.652Z,1016.1
2017-01-27T00:20:08.259Z,1016.18
2017-01-27T00:21:19.658Z,1016.13
2017-01-27T00:22:31.259Z,1016.17
2017-01-27T00:23:42.715Z,1016.12
2017-01-27T00:24:54.111Z,1016.14
2017-01-27T00:26:05.519Z,1016.06
2017-01-27T00:27:16.918Z,1016.03
2017-01-27T00:28:28.523Z,1016.02
2017-01-27T00:29:39.974Z,1015.98
2017-01-27T00:30:51.367Z,1015.95
2017-01-27T00:32:02.762Z,1015.95
2017-01-27T00:33:14.163Z,1015.94
2017-01-27T00:34:25.562Z,1015.94
2017-01-27T00:35:37.210Z,1015.97
2017-01-27T00:36:48.606Z,1015.9
2017-01-27T00:38:00.014Z,1015.84
2017-01-27T00:39:11.417Z,1015.83
2017-01-27T00:40:23.017Z,1015.85
2017-01-27T00:41:34.462Z,1015.88
2017-01-27T00:42:45.860Z,1015.88
2017-01-27T00:43:57.265Z,1015.83
2017-01-27T00:45:08.665Z,1015.78
2017-01-27T00:46:20.064Z,1015.75
2017-01-27T00:47:31.717Z,1015.75
2017-01-27T00:48:43.315Z,1015.73
2017-01-27T00:49:54.717Z,1015.72
2017-01-27T00:51:06.120Z,1015.74
2017-01-27T00:52:17.511Z,1015.72
2017-01-27T00:53:28.976Z,1015.65
2017-01-27T00:54:40.374Z,1015.58
2017-01-27T00:55:51.766Z,1015.55
2017-01-27T00:57:03.367Z,1015.54
2017-01-27T00:58:14.765Z,1015.51
2017-01-27T00:59:26.211Z,1015.54
2017-01-27T01:00:37.619Z,1015.57
2017-01-27T01:01:49.230Z,1015.57
2017-01-27T01:03:00.633Z,1015.53
2017-01-27T01:04:12.035Z,1015.59
2017-01-27T01:05:23.491Z,1015.55
2017-01-27T01:06:34.888Z,1015.52
2017-01-27T01:07:46.295Z,1015.47
2017-01-27T01:08:57.690Z,1015.48
2017-01-27T01:10:09.095Z,1015.45
2017-01-27T01:11:20.551Z,1015.46
2017-01-27T01:12:31.954Z,1015.44
2017-01-27T01:13:43.554Z,1015.41
2017-01-27T01:14:54.956Z,1015.38
2017-01-27T01:16:06.365Z,1015.33
2017-01-27T01:17:17.817Z,1015.24
2017-01-27T01:18:29.413Z,1015.22
2017-01-27T01:19:40.814Z,1015.24
2017-01-27T01:20:52.217Z,1015.22
2017-01-27T01:22:03.618Z,1015.18
2017-01-27T01:23:15.087Z,1015.16
2017-01-27T01:24:26.481Z,1015.14
2017-01-27T01:25:37.874Z,1015.1
2017-01-27T01:26:49.265Z,1015.12
2017-01-27T01:28:00.861Z,1015.1
2017-01-27T01:29:12.313Z,1015.09
2017-01-27T01:30:23.705Z,1015.13
2017-01-27T01:31:35.107Z,1015.09
2017-01-27T01:32:46.708Z,1015.08
2017-01-27T01:33:58.109Z,1015.04
2017-01-27T01:35:09.751Z,1015.06
2017-01-27T01:36:21.358Z,1015.08
2017-01-27T01:37:32.758Z,1015.01
2017-01-27T01:38:44.154Z,1014.99
2017-01-27T01:39:55.579Z,1014.96
2017-01-27T01:41:07.031Z,1014.97
2017-01-27T01:42:18.631Z,1014.89
2017-01-27T01:43:30.031Z,1014.96
2017-01-27T01:44:41.441Z,1015
2017-01-27T01:45:53.036Z,1014.98
2017-01-27T01:47:04.689Z,1015.02
2017-01-27T01:48:16.081Z,1015.02
2017-01-27T01:49:27.684Z,1015.03
2017-01-27T01:50:39.082Z,1015.06
2017-01-27T01:51:50.484Z,1015.11
2017-01-27T01:53:01.930Z,1015.11
2017-01-27T01:54:13.529Z,1015.11
2017-01-27T01:55:24.926Z,1015.12
2017-01-27T01:56:36.533Z,1015.11
2017-01-27T01:57:47.939Z,1015.05
2017-01-27T01:58:59.392Z,1015.02
2017-01-27T02:00:10.797Z,1014.95
2017-01-27T02:01:22.207Z,1014.88
2017-01-27T02:02:33.604Z,1014.79
2017-01-27T02:03:45.003Z,1014.71
2017-01-27T02:04:56.454Z,1014.71
2017-01-27T02:06:08.067Z,1014.73
2017-01-27T02:07:19.684Z,1014.73
2017-01-27T02:08:31.086Z,1014.72
2017-01-27T02:09:42.485Z,1014.73
2017-01-27T02:10:54.136Z,1014.82
2017-01-27T02:12:05.544Z,1014.77
2017-01-27T02:13:16.945Z,1014.77
2017-01-27T02:14:28.545Z,1014.76
2017-01-27T02:15:39.947Z,1014.74
2017-01-27T02:16:51.419Z,1014.75
2017-01-27T02:18:02.827Z,1014.77
2017-01-27T02:19:14.229Z,1014.75
2017-01-27T02:20:25.635Z,1014.75
2017-01-27T02:21:37.030Z,1014.77
2017-01-27T02:22:48.684Z,1014.71
2017-01-27T02:24:00.296Z,1014.71
2017-01-27T02:25:11.895Z,1014.74
2017-01-27T02:26:23.292Z,1014.7
2017-01-27T02:27:34.705Z,1014.67
2017-01-27T02:28:46.152Z,1014.65
2017-01-27T02:29:57.554Z,1014.69
2017-01-27T02:31:08.953Z,1014.69
2017-01-27T02:32:20.355Z,1014.68
2017-01-27T02:33:31.762Z,1014.66
2017-01-27T02:34:43.421Z,1014.67
2017-01-27T02:35:54.823Z,1014.6
2017-01-27T02:37:06.223Z,1014.63
2017-01-27T02:38:17.616Z,1014.61
2017-01-27T02:39:29.012Z,1014.63
2017-01-27T02:40:40.461Z,1014.62
2017-01-27T02:41:51.858Z,1014.62
2017-01-27T02:43:03.260Z,1014.58
2017-01-27T02:44:14.658Z,1014.61
2017-01-27T02:45:26.055Z,1014.55
2017-01-27T02:46:37.507Z,1014.57
2017-01-27T02:47:49.113Z,1014.55
2017-01-27T02:49:00.512Z,1014.51
2017-01-27T02:50:11.914Z,1014.5
2017-01-27T02:51:23.516Z,1014.51
2017-01-27T02:52:34.985Z,1014.5
2017-01-27T02:53:46.386Z,1014.49
2017-01-27T02:54:57.989Z,1014.55
2017-01-27T02:56:09.400Z,1014.52
2017-01-27T02:57:20.789Z,1014.54
2017-01-27T02:58:32.241Z,1014.57
2017-01-27T02:59:43.872Z,1014.45
2017-01-27T03:00:55.267Z,1014.42
2017-01-27T03:02:06.872Z,1014.46
2017-01-27T03:03:18.277Z,1014.51
2017-01-27T03:04:29.928Z,1014.57
2017-01-27T03:05:41.336Z,1014.6
2017-01-27T03:06:52.741Z,1014.61
2017-01-27T03:08:04.145Z,1014.6
2017-01-27T03:09:15.539Z,1014.57
2017-01-27T03:10:26.990Z,1014.54
2017-01-27T03:11:38.394Z,1014.61
2017-01-27T03:12:49.795Z,1014.55
2017-01-27T03:14:01.225Z,1014.57
2017-01-27T03:15:12.829Z,1014.55
2017-01-27T03:16:24.285Z,1014.58
2017-01-27T03:17:35.689Z,1014.52
2017-01-27T03:18:47.094Z,1014.48
2017-01-27T03:19:58.505Z,1014.49
2017-01-27T03:21:09.901Z,1014.5
2017-01-27T03:22:21.350Z,1014.45
2017-01-27T03:23:32.749Z,1014.38
2017-01-27T03:24:44.181Z,1014.41
2017-01-27T03:25:55.589Z,1014.45
2017-01-27T03:27:06.991Z,1014.41
2017-01-27T03:28:18.643Z,1014.41
2017-01-27T03:29:30.034Z,1014.34
2017-01-27T03:30:41.433Z,1014.3
2017-01-27T03:31:53.032Z,1014.26
2017-01-27T03:33:04.424Z,1014.33
2017-01-27T03:34:15.872Z,1014.28
2017-01-27T03:35:27.275Z,1014.15
2017-01-27T03:36:38.874Z,1014.2
2017-01-27T03:37:50.305Z,1014.25
2017-01-27T03:39:01.710Z,1014.22
2017-01-27T03:40:13.153Z,1014.16
2017-01-27T03:41:24.548Z,1014.17
2017-01-27T03:42:35.942Z,1014.18
2017-01-27T03:43:47.337Z,1014.21
2017-01-27T03:44:58.943Z,1014.24
2017-01-27T03:46:10.618Z,1014.24
2017-01-27T03:47:22.216Z,1014.21
2017-01-27T03:48:33.818Z,1014.17
2017-01-27T03:49:45.207Z,1014.22
2017-01-27T03:50:56.600Z,1014.2
2017-01-27T03:52:08.051Z,1014.24
2017-01-27T03:53:19.458Z,1014.26
2017-01-27T03:54:30.867Z,1014.22
2017-01-27T03:55:42.269Z,1014.36
2017-01-27T03:56:53.667Z,1014.42
2017-01-27T03:58:05.139Z,1014.35
2017-01-27T03:59:16.550Z,1014.37
2017-01-27T04:00:27.944Z,1014.36
2017-01-27T04:01:39.545Z,1014.41
2017-01-27T04:02:50.936Z,1014.41
2017-01-27T04:04:02.406Z,1014.33
2017-01-27T04:05:13.799Z,1014.27
2017-01-27T04:06:25.197Z,1014.27
2017-01-27T04:07:36.601Z,1014.39
2017-01-27T04:08:48.197Z,1014.36
2017-01-27T04:09:59.648Z,1014.36
2017-01-27T04:11:11.089Z,1014.36
2017-01-27T04:12:22.694Z,1014.42
2017-01-27T04:13:34.087Z,1014.45
2017-01-27T04:14:45.482Z,1014.53
2017-01-27T04:15:56.931Z,1014.5
2017-01-27T04:17:08.330Z,1014.44
2017-01-27T04:18:19.725Z,1014.39
2017-01-27T04:19:31.329Z,1014.47
2017-01-27T04:20:42.936Z,1014.5
2017-01-27T04:21:54.394Z,1014.51
2017-01-27T04:23:05.790Z,1014.48
2017-01-27T04:24:17.393Z,1014.47
2017-01-27T04:25:29.000Z,1014.5
2017-01-27T04:26:40.402Z,1014.54
2017-01-27T04:27:51.859Z,1014.55
2017-01-27T04:29:03.535Z,1014.51
2017-01-27T04:30:14.934Z,1014.49
2017-01-27T04:31:26.336Z,1014.51
2017-01-27T04:32:37.932Z,1014.46
2017-01-27T04:33:49.585Z,1014.42
2017-01-27T04:35:01.191Z,1014.4
2017-01-27T04:36:12.591Z,1014.42
2017-01-27T04:37:23.989Z,1014.37
2017-01-27T04:38:35.390Z,1014.4
2017-01-27T04:39:46.842Z,1014.37
2017-01-27T04:40:58.241Z,1014.44
2017-01-27T04:42:09.638Z,1014.44
2017-01-27T04:43:21.039Z,1014.47
2017-01-27T04:44:32.443Z,1014.48
2017-01-27T04:45:43.897Z,1014.54
2017-01-27T04:46:55.496Z,1014.48
2017-01-27T04:48:06.900Z,1014.5
2017-01-27T04:49:18.310Z,1014.48
2017-01-27T04:50:29.704Z,1014.46
2017-01-27T04:51:41.151Z,1014.45
2017-01-27T04:52:52.551Z,1014.46
2017-01-27T04:54:03.951Z,1014.41
2017-01-27T04:55:15.353Z,1014.46
2017-01-27T04:56:26.749Z,1014.44
2017-01-27T04:57:38.205Z,1014.44
2017-01-27T04:58:49.610Z,1014.48
2017-01-27T05:00:01.019Z,1014.54
2017-01-27T05:01:12.416Z,1014.61
2017-01-27T05:02:23.824Z,1014.54
2017-01-27T05:03:35.272Z,1014.52
2017-01-27T05:04:46.674Z,1014.51
2017-01-27T05:05:58.086Z,1014.43
2017-01-27T05:07:09.686Z,1014.45
2017-01-27T05:08:21.082Z,1014.51
2017-01-27T05:09:32.735Z,1014.48
2017-01-27T05:10:44.131Z,1014.45
2017-01-27T05:11:55.529Z,1014.36
2017-01-27T05:13:06.926Z,1014.33
2017-01-27T05:14:18.322Z,1014.32
2017-01-27T05:15:29.963Z,1014.27
2017-01-27T05:16:41.361Z,1014.28
2017-01-27T05:17:52.751Z,1014.33
2017-01-27T05:19:04.152Z,1014.29
2017-01-27T05:20:15.552Z,1014.25
2017-01-27T05:21:26.999Z,1014.33
2017-01-27T05:22:38.806Z,1014.31
2017-01-27T05:23:50.408Z,1014.28
2017-01-27T05:25:01.836Z,1014.25
2017-01-27T05:26:13.240Z,1014.27
2017-01-27T05:27:24.693Z,1014.3
2017-01-27T05:28:36.096Z,1014.23
2017-01-27T05:29:47.502Z,1014.21
2017-01-27T05:30:59.106Z,1014.25
2017-01-27T05:32:10.502Z,1014.27
2017-01-27T05:33:21.955Z,1014.26
2017-01-27T05:34:33.351Z,1014.29
2017-01-27T05:35:44.777Z,1014.35
2017-01-27T05:36:56.175Z,1014.39
2017-01-27T05:38:07.777Z,1014.45
2017-01-27T05:39:19.224Z,1014.47
2017-01-27T05:40:30.626Z,1014.43
2017-01-27T05:41:42.032Z,1014.4
2017-01-27T05:42:53.423Z,1014.45
2017-01-27T05:44:04.817Z,1014.47
2017-01-27T05:45:16.462Z,1014.5
2017-01-27T05:46:27.854Z,1014.47
2017-01-27T05:47:39.249Z,1014.47
2017-01-27T05:48:50.679Z,1014.49
2017-01-27T05:50:02.077Z,1014.52
2017-01-27T05:51:13.526Z,1014.46
2017-01-27T05:52:24.929Z,1014.42
2017-01-27T05:53:36.583Z,1014.47
2017-01-27T05:54:47.995Z,1014.51
2017-01-27T05:55:59.408Z,1014.45
2017-01-27T05:57:10.877Z,1014.42
2017-01-27T05:58:22.275Z,1014.45
2017-01-27T05:59:34.077Z,1014.44
2017-01-27T06:00:45.484Z,1014.44
2017-01-27T06:01:56.881Z,1014.38
2017-01-27T06:03:08.337Z,1014.34
2017-01-27T06:04:19.730Z,1014.31
2017-01-27T06:05:31.131Z,1014.35
2017-01-27T06:06:42.529Z,1014.3
2017-01-27T06:07:53.923Z,1014.33
2017-01-27T06:09:05.375Z,1014.38
2017-01-27T06:10:16.973Z,1014.38
2017-01-27T06:11:28.572Z,1014.42
2017-01-27T06:12:39.973Z,1014.43
2017-01-27T06:13:51.574Z,1014.44
2017-01-27T06:15:03.028Z,1014.49
2017-01-27T06:16:14.631Z,1014.49
2017-01-27T06:17:26.037Z,1014.51
2017-01-27T06:18:37.438Z,1014.45
2017-01-27T06:19:48.847Z,1014.41
2017-01-27T06:21:00.301Z,1014.36
2017-01-27T06:22:11.902Z,1014.35
2017-01-27T06:23:23.302Z,1014.36
2017-01-27T06:24:34.699Z,1014.37
2017-01-27T06:25:46.106Z,1014.32
2017-01-27T06:26:57.767Z,1014.3
2017-01-27T06:28:09.169Z,1014.31
2017-01-27T06:29:20.576Z,1014.33
2017-01-27T06:30:31.990Z,1014.37
2017-01-27T06:31:43.387Z,1014.32
2017-01-27T06:32:54.845Z,1014.32
2017-01-27T06:34:06.251Z,1014.26
2017-01-27T06:35:17.654Z,1014.29
2017-01-27T06:36:29.258Z,1014.41
2017-01-27T06:37:40.662Z,1014.43
2017-01-27T06:38:52.116Z,1014.46
2017-01-27T06:40:03.518Z,1014.45
2017-01-27T06:41:14.922Z,1014.47
2017-01-27T06:42:26.320Z,1014.43
2017-01-27T06:43:37.722Z,1014.42
2017-01-27T06:44:49.179Z,1014.4
2017-01-27T06:46:00.579Z,1014.44
2017-01-27T06:47:11.996Z,1014.43
2017-01-27T06:48:23.386Z,1014.39
2017-01-27T06:49:34.992Z,1014.4
2017-01-27T06:50:46.443Z,1014.39
2017-01-27T06:51:57.845Z,1014.41
2017-01-27T06:53:09.257Z,1014.4
2017-01-27T06:54:20.648Z,1014.46
2017-01-27T06:55:32.044Z,1014.44
2017-01-27T06:56:43.490Z,1014.45
2017-01-27T06:57:54.883Z,1014.48
2017-01-27T06:59:06.267Z,1014.48
2017-01-27T07:00:17.673Z,1014.54
2017-01-27T07:01:29.274Z,1014.53
2017-01-27T07:02:40.730Z,1014.45
2017-01-27T07:03:52.341Z,1014.51
2017-01-27T07:05:03.751Z,1014.44
2017-01-27T07:06:15.143Z,1014.44
2017-01-27T07:07:26.540Z,1014.42
2017-01-27T07:08:38.193Z,1014.46
2017-01-27T07:09:49.793Z,1014.44
2017-01-27T07:11:01.395Z,1014.51
2017-01-27T07:12:12.796Z,1014.49
2017-01-27T07:13:24.393Z,1014.45
2017-01-27T07:14:35.838Z,1014.45
2017-01-27T07:15:47.230Z,1014.47
2017-01-27T07:16:58.635Z,1014.53
2017-01-27T07:18:10.031Z,1014.55
2017-01-27T07:19:21.432Z,1014.56
2017-01-27T07:20:32.885Z,1014.59
2017-01-27T07:21:44.286Z,1014.59
2017-01-27T07:22:56.085Z,1014.59
2017-01-27T07:24:07.694Z,1014.63
2017-01-27T07:25:19.307Z,1014.67
2017-01-27T07:26:30.960Z,1014.66
2017-01-27T07:27:42.556Z,1014.61
2017-01-27T07:28:53.955Z,1014.61
2017-01-27T07:30:05.357Z,1014.58
2017-01-27T07:31:16.955Z,1014.54
2017-01-27T07:32:28.402Z,1014.53
2017-01-27T07:33:39.811Z,1014.52
2017-01-27T07:34:51.221Z,1014.53
2017-01-27T07:36:02.623Z,1014.57
2017-01-27T07:37:14.018Z,1014.58
2017-01-27T07:38:25.672Z,1014.55
2017-01-27T07:39:37.482Z,1014.6
2017-01-27T07:40:48.884Z,1014.63
2017-01-27T07:42:00.295Z,1014.68
2017-01-27T07:43:11.905Z,1014.66
2017-01-27T07:44:23.353Z,1014.73
2017-01-27T07:45:34.760Z,1014.7
2017-01-27T07:46:46.582Z,1014.68
2017-01-27T07:47:57.985Z,1014.72
2017-01-27T07:49:09.382Z,1014.79
2017-01-27T07:50:20.825Z,1014.73
2017-01-27T07:51:32.231Z,1014.78
2017-01-27T07:52:43.637Z,1014.81
2017-01-27T07:53:55.040Z,1014.8
2017-01-27T07:55:06.439Z,1014.79
2017-01-27T07:56:17.883Z,1014.7
2017-01-27T07:57:29.282Z,1014.7
2017-01-27T07:58:40.714Z,1014.72
2017-01-27T07:59:52.111Z,1014.69
2017-01-27T08:01:03.716Z,1014.7
2017-01-27T08:02:15.157Z,1014.69
2017-01-27T08:03:26.560Z,1014.71
2017-01-27T08:04:38.162Z,1014.68
2017-01-27T08:05:49.774Z,1014.68
2017-01-27T08:07:01.176Z,1014.7
2017-01-27T08:08:12.633Z,1014.71
2017-01-27T08:09:24.236Z,1014.78
2017-01-27T08:10:35.643Z,1014.82
2017-01-27T08:11:47.251Z,1014.84
2017-01-27T08:12:58.656Z,1014.81
2017-01-27T08:14:10.108Z,1014.81
2017-01-27T08:15:21.497Z,1014.82
2017-01-27T08:16:32.896Z,1014.81
2017-01-27T08:17:44.298Z,1014.81
2017-01-27T08:18:55.901Z,1014.79
2017-01-27T08:20:07.349Z,1014.8
2017-01-27T08:21:18.968Z,1014.79
2017-01-27T08:22:30.596Z,1014.8
2017-01-27T08:23:42.208Z,1014.79
2017-01-27T08:24:53.637Z,1014.83
2017-01-27T08:26:05.083Z,1014.86
2017-01-27T08:27:16.691Z,1014.83
2017-01-27T08:28:28.091Z,1014.79
2017-01-27T08:29:39.502Z,1014.8
2017-01-27T08:30:50.908Z,1014.78
2017-01-27T08:32:02.552Z,1014.79
2017-01-27T08:33:13.955Z,1014.76
2017-01-27T08:34:25.557Z,1014.82
2017-01-27T08:35:36.958Z,1014.84
2017-01-27T08:36:48.363Z,1014.84
2017-01-27T08:38:00.014Z,1014.89
2017-01-27T08:39:11.421Z,1014.85
2017-01-27T08:40:23.050Z,1014.87
2017-01-27T08:41:34.455Z,1014.92
2017-01-27T08:42:45.853Z,1014.88
2017-01-27T08:43:57.509Z,1014.89
2017-01-27T08:45:08.915Z,1014.85
2017-01-27T08:46:20.321Z,1014.82
2017-01-27T08:47:31.725Z,1014.83
2017-01-27T08:48:43.129Z,1014.86
2017-01-27T08:49:54.584Z,1014.91
2017-01-27T08:51:05.983Z,1014.92
2017-01-27T08:52:17.597Z,1014.98
2017-01-27T08:53:29.007Z,1014.93
2017-01-27T08:54:40.406Z,1014.9
2017-01-27T08:55:51.855Z,1014.89
2017-01-27T08:57:03.262Z,1014.86
2017-01-27T08:58:14.659Z,1014.91
2017-01-27T08:59:26.066Z,1014.92
2017-01-27T09:00:37.481Z,1015.02
2017-01-27T09:01:49.141Z,1015.01
2017-01-27T09:03:00.558Z,1015
2017-01-27T09:04:11.962Z,1015.02
2017-01-27T09:05:23.360Z,1015
2017-01-27T09:06:34.767Z,1014.99
2017-01-27T09:07:46.428Z,1015
2017-01-27T09:08:57.835Z,1015.02
2017-01-27T09:10:09.239Z,1014.98
2017-01-27T09:11:20.648Z,1015.03
2017-01-27T09:12:32.081Z,1015.02
2017-01-27T09:13:43.544Z,1015.05
2017-01-27T09:14:54.948Z,1015.03
2017-01-27T09:16:06.347Z,1015.11
2017-01-27T09:17:17.752Z,1015.21
2017-01-27T09:18:29.386Z,1015.24
2017-01-27T09:19:40.839Z,1015.26
2017-01-27T09:20:52.251Z,1015.23
2017-01-27T09:22:03.661Z,1015.22
2017-01-27T09:23:15.068Z,1015.23
2017-01-27T09:24:26.473Z,1015.15
2017-01-27T09:25:37.960Z,1015.17
2017-01-27T09:26:49.578Z,1015.14
2017-01-27T09:28:00.983Z,1015.14
2017-01-27T09:29:12.590Z,1015.16
2017-01-27T09:30:24.013Z,1015.14
2017-01-27T09:31:35.470Z,1015.14
2017-01-27T09:32:46.880Z,1015.13
2017-01-27T09:33:58.281Z,1015.14
2017-01-27T09:35:09.679Z,1015.21
2017-01-27T09:36:21.082Z,1015.12
2017-01-27T09:37:32.540Z,1015.17
2017-01-27T09:38:43.974Z,1015.2
2017-01-27T09:39:55.580Z,1015.19
2017-01-27T09:41:07.182Z,1015.1
2017-01-27T09:42:18.606Z,1015.18
2017-01-27T09:43:30.070Z,1015.23
2017-01-27T09:44:41.491Z,1015.19
2017-01-27T09:45:52.899Z,1015.18
2017-01-27T09:47:04.308Z,1015.22
2017-01-27T09:48:15.911Z,1015.14
2017-01-27T09:49:27.368Z,1015.19
2017-01-27T09:50:38.783Z,1015.2
2017-01-27T09:51:50.198Z,1015.19
2017-01-27T09:53:01.615Z,1015.23
2017-01-27T09:54:13.031Z,1015.28
2017-01-27T09:55:24.493Z,1015.26
2017-01-27T09:56:36.103Z,1015.25
2017-01-27T09:57:47.509Z,1015.23
2017-01-27T09:58:58.914Z,1015.17
2017-01-27T10:00:10.321Z,1015.11
2017-01-27T10:01:21.780Z,1015.09
2017-01-27T10:02:33.190Z,1015.15
2017-01-27T10:03:44.793Z,1015.13
2017-01-27T10:04:56.199Z,1015.16
2017-01-27T10:06:07.612Z,1015.22
2017-01-27T10:07:19.267Z,1015.18
2017-01-27T10:08:30.676Z,1015.22
2017-01-27T10:09:42.088Z,1015.24
2017-01-27T10:10:53.705Z,1015.19
2017-01-27T10:12:05.309Z,1015.19
2017-01-27T10:13:16.755Z,1015.3
2017-01-27T10:14:28.166Z,1015.25
2017-01-27T10:15:39.583Z,1015.29
2017-01-27T10:16:50.992Z,1015.23
2017-01-27T10:18:02.621Z,1015.24
2017-01-27T10:19:14.072Z,1015.17
2017-01-27T10:20:25.484Z,1015.24
2017-01-27T10:21:36.892Z,1015.33
2017-01-27T10:22:48.360Z,1015.37
2017-01-27T10:23:59.780Z,1015.39
2017-01-27T10:25:11.437Z,1015.33
2017-01-27T10:26:22.851Z,1015.31
2017-01-27T10:27:34.267Z,1015.29
2017-01-27T10:28:45.677Z,1015.29
2017-01-27T10:29:57.086Z,1015.24
2017-01-27T10:31:08.556Z,1015.25
2017-01-27T10:32:19.956Z,1015.16
2017-01-27T10:33:31.364Z,1015.21
2017-01-27T10:34:42.999Z,1015.19
2017-01-27T10:35:54.618Z,1015.15
2017-01-27T10:37:06.088Z,1015.18
2017-01-27T10:38:17.500Z,1015.19
2017-01-27T10:39:28.913Z,1015.24
2017-01-27T10:40:40.525Z,1015.25
2017-01-27T10:41:51.938Z,1015.19
2017-01-27T10:43:03.401Z,1015.24
2017-01-27T10:44:14.818Z,1015.22
2017-01-27T10:45:26.226Z,1014.92
2017-01-27T10:46:37.835Z,1015.31
2017-01-27T10:47:49.244Z,1015.24
2017-01-27T10:49:00.720Z,1015.1
2017-01-27T10:50:12.132Z,1015.06
2017-01-27T10:51:23.541Z,1015.09
2017-01-27T10:52:34.951Z,1015.01
2017-01-27T10:53:46.573Z,1015
2017-01-27T10:54:58.032Z,1014.93
2017-01-27T10:56:09.445Z,1014.92
2017-01-27T10:57:20.868Z,1014.95
2017-01-27T10:58:32.278Z,1015
2017-01-27T10:59:43.700Z,1014.99
2017-01-27T11:00:55.163Z,1015.01
2017-01-27T11:02:06.577Z,1015.03
2017-01-27T11:03:17.992Z,1015
2017-01-27T11:04:29.633Z,1015.02
2017-01-27T11:05:41.051Z,1015.07
2017-01-27T11:06:52.521Z,1015.07
2017-01-27T11:08:03.923Z,1015.07
2017-01-27T11:09:15.337Z,1015.03
2017-01-27T11:10:26.754Z,1015.02
2017-01-27T11:11:38.174Z,1015.03
2017-01-27T11:12:49.642Z,1014.97
2017-01-27T11:14:01.060Z,1015.06
2017-01-27T11:15:12.476Z,1015.04
2017-01-27T11:16:23.920Z,1014.95
2017-01-27T11:17:35.524Z,1014.92
2017-01-27T11:18:46.990Z,1014.86
2017-01-27T11:19:58.402Z,1014.79
2017-01-27T11:21:10.040Z,1014.81
2017-01-27T11:22:21.457Z,1014.9
2017-01-27T11:23:32.861Z,1014.87
2017-01-27T11:24:44.529Z,1014.91
2017-01-27T11:25:55.948Z,1014.94
2017-01-27T11:27:07.363Z,1015.06
2017-01-27T11:28:18.774Z,1015.08
2017-01-27T11:29:30.192Z,1015.08
2017-01-27T11:30:42.055Z,1015.02
2017-01-27T11:31:53.463Z,1014.99
2017-01-27T11:33:04.885Z,1015.09
2017-01-27T11:34:16.298Z,1015.09
2017-01-27T11:35:27.727Z,1015.06
2017-01-27T11:36:39.389Z,1014.94
2017-01-27T11:37:50.797Z,1014.95
2017-01-27T11:39:02.215Z,1014.89
2017-01-27T11:40:13.632Z,1014.86
2017-01-27T11:41:25.047Z,1014.82
2017-01-27T11:42:36.511Z,1014.83
2017-01-27T11:43:48.117Z,1014.8
2017-01-27T11:44:59.533Z,1014.82
2017-01-27T11:46:10.942Z,1014.79
2017-01-27T11:47:22.361Z,1014.8
2017-01-27T11:48:33.823Z,1014.86
2017-01-27T11:49:45.443Z,1014.94
2017-01-27T11:50:56.850Z,1014.9
2017-01-27T11:52:08.457Z,1014.9
2017-01-27T11:53:20.069Z,1014.84
2017-01-27T11:54:31.532Z,1014.87
2017-01-27T11:55:42.947Z,1014.82
2017-01-27T11:56:54.357Z,1014.82
2017-01-27T11:58:05.771Z,1014.86
2017-01-27T11:59:17.206Z,1014.86
2017-01-27T12:00:28.672Z,1014.88
2017-01-27T12:01:40.083Z,1014.88
2017-01-27T12:02:51.702Z,1014.85
2017-01-27T12:04:03.122Z,1014.86
2017-01-27T12:05:14.735Z,1014.83
2017-01-27T12:06:26.193Z,1014.89
2017-01-27T12:07:37.652Z,1014.84
2017-01-27T12:08:49.286Z,1014.83
2017-01-27T12:10:00.690Z,1014.75
2017-01-27T12:11:12.093Z,1014.78
2017-01-27T12:12:23.550Z,1014.78
2017-01-27T12:13:35.166Z,1014.75
2017-01-27T12:14:46.610Z,1014.77
2017-01-27T12:15:58.016Z,1014.77
2017-01-27T12:17:09.452Z,1014.72
2017-01-27T12:18:20.911Z,1014.75
2017-01-27T12:19:32.323Z,1014.7
2017-01-27T12:20:43.741Z,1014.71
2017-01-27T12:21:55.144Z,1014.66
2017-01-27T12:23:06.550Z,1014.64
2017-01-27T12:24:18.017Z,1014.59
2017-01-27T12:25:29.429Z,1014.56
2017-01-27T12:26:40.837Z,1014.57
2017-01-27T12:27:52.456Z,1014.49
2017-01-27T12:29:03.867Z,1014.48
2017-01-27T12:30:15.532Z,1014.47
2017-01-27T12:31:27.147Z,1014.43
2017-01-27T12:32:38.562Z,1014.47
2017-01-27T12:33:49.979Z,1014.44
2017-01-27T12:35:01.594Z,1014.4
2017-01-27T12:36:13.049Z,1014.4
2017-01-27T12:37:24.666Z,1014.41
2017-01-27T12:38:36.281Z,1014.43
2017-01-27T12:39:47.707Z,1014.41
2017-01-27T12:40:59.135Z,1014.41
2017-01-27T12:42:10.594Z,1014.42
2017-01-27T12:43:22.000Z,1014.4
2017-01-27T12:44:33.406Z,1014.32
2017-01-27T12:45:44.824Z,1014.31
2017-01-27T12:46:56.243Z,1014.33
2017-01-27T12:48:07.704Z,1014.34
2017-01-27T12:49:19.120Z,1014.32
2017-01-27T12:50:30.528Z,1014.33
2017-01-27T12:51:41.940Z,1014.32
2017-01-27T12:52:53.348Z,1014.34
2017-01-27T12:54:05.015Z,1014.39
2017-01-27T12:55:16.632Z,1014.37
2017-01-27T12:56:28.044Z,1014.33
2017-01-27T12:57:39.459Z,1014.32
2017-01-27T12:58:50.873Z,1014.31
2017-01-27T13:00:02.584Z,1014.32
2017-01-27T13:01:13.989Z,1014.33
2017-01-27T13:02:25.401Z,1014.29
2017-01-27T13:03:37.020Z,1014.26
2017-01-27T13:04:48.666Z,1014.24
2017-01-27T13:06:00.140Z,1014.27
2017-01-27T13:07:11.555Z,1014.26
2017-01-27T13:08:22.974Z,1014.27
2017-01-27T13:09:34.388Z,1014.28
2017-01-27T13:10:46.005Z,1014.28
2017-01-27T13:11:57.477Z,1014.24
2017-01-27T13:13:08.888Z,1014.28
2017-01-27T13:14:20.296Z,1014.26
2017-01-27T13:15:31.913Z,1014.18
2017-01-27T13:16:43.338Z,1014.16
2017-01-27T13:17:54.999Z,1014.16
2017-01-27T13:19:06.442Z,1014.11
2017-01-27T13:20:18.066Z,1014.11
2017-01-27T13:21:29.680Z,1014.05
2017-01-27T13:22:41.293Z,1013.99
2017-01-27T13:23:52.956Z,1013.99
2017-01-27T13:25:04.374Z,1013.97
2017-01-27T13:26:15.795Z,1013.93
2017-01-27T13:27:27.210Z,1013.88
2017-01-27T13:28:38.630Z,1013.87
2017-01-27T13:29:50.097Z,1013.88
2017-01-27T13:31:01.505Z,1013.92
2017-01-27T13:32:12.913Z,1013.9
2017-01-27T13:33:24.321Z,1013.89
2017-01-27T13:34:35.737Z,1013.93
2017-01-27T13:35:47.200Z,1013.9
2017-01-27T13:36:58.608Z,1013.91
2017-01-27T13:38:10.028Z,1013.99
2017-01-27T13:39:21.444Z,1013.97
2017-01-27T13:40:33.054Z,1014.01
2017-01-27T13:41:44.522Z,1014.02
2017-01-27T13:42:55.934Z,1014
2017-01-27T13:44:07.345Z,1013.96
2017-01-27T13:45:18.756Z,1013.94
2017-01-27T13:46:30.370Z,1013.97
2017-01-27T13:47:41.829Z,1013.98
2017-01-27T13:48:53.245Z,1013.92
2017-01-27T13:50:04.656Z,1013.93
2017-01-27T13:51:16.272Z,1013.95
2017-01-27T13:52:27.680Z,1013.96
2017-01-27T13:53:39.149Z,1014
2017-01-27T13:54:50.568Z,1014.01
2017-01-27T13:56:01.990Z,1014.02
2017-01-27T13:57:13.395Z,1014.06
2017-01-27T13:58:24.800Z,1014.08
2017-01-27T13:59:36.459Z,1014.12
2017-01-27T14:00:48.064Z,1014.11
2017-01-27T14:01:59.469Z,1014.12
2017-01-27T14:03:10.881Z,1014.08
2017-01-27T14:04:22.285Z,1014.11
2017-01-27T14:05:33.744Z,1014.11
2017-01-27T14:06:45.160Z,1014.14
2017-01-27T14:07:56.569Z,1014.11
2017-01-27T14:09:07.981Z,1014.15
2017-01-27T14:10:19.389Z,1014.13
2017-01-27T14:11:30.852Z,1014.1
2017-01-27T14:12:42.265Z,1014.09
2017-01-27T14:13:53.675Z,1014.12
2017-01-27T14:15:05.078Z,1014.09
2017-01-27T14:16:16.483Z,1014.12
2017-01-27T14:17:27.947Z,1014.09
2017-01-27T14:18:39.363Z,1014.15
2017-01-27T14:19:50.780Z,1014.17
2017-01-27T14:21:02.602Z,1014.17
2017-01-27T14:22:14.016Z,1014.18
2017-01-27T14:23:25.502Z,1014.21
2017-01-27T14:24:36.910Z,1014.22
2017-01-27T14:25:48.520Z,1014.24
2017-01-27T14:26:59.934Z,1014.22
2017-01-27T14:28:11.350Z,1014.25